createdAt,value
2022-08-12T00:00:52.252Z,3.40
2022-08-12T00:09:34.233Z,2.75
2022-08-12T00:18:14.687Z,2.40
2022-08-12T00:26:56.919Z,5.63
2022-08-12T00:35:37.484Z,4.88
2022-08-12T00:40:01.687Z,3.20
2022-08-12T00:44:10.814Z,4.00
2022-08-12T00:48:14.753Z,5.45
2022-08-12T00:52:18.586Z,4.97
2022-08-12T00:56:26.586Z,3.95
2022-08-12T01:00:29.371Z,3.35
2022-08-12T01:04:49.654Z,5.28
2022-08-12T01:09:11.498Z,3.08
2022-08-12T01:13:19.559Z,4.43
2022-08-12T01:17:23.978Z,2.83
2022-08-12T01:21:44.775Z,2.83
2022-08-12T01:25:55.961Z,4.45
2022-08-12T01:30:02.782Z,2.97
2022-08-12T01:34:28.670Z,2.92
2022-08-12T01:38:34.762Z,5.63
2022-08-12T01:42:45.875Z,3.15
2022-08-12T01:46:58.547Z,5.30
2022-08-12T01:51:06.363Z,2.78
2022-08-12T01:55:12.371Z,3.63
2022-08-12T01:59:36.310Z,3.88
2022-08-12T02:04:18.471Z,3.40
2022-08-12T02:08:52.300Z,7.05
2022-08-12T02:13:04.197Z,3.65
2022-08-12T02:17:54.779Z,4.57
2022-08-12T02:21:52.895Z,4.50
2022-08-12T02:26:00.479Z,3.88
2022-08-12T02:30:03.723Z,7.00
2022-08-12T02:34:09.318Z,4.40
2022-08-12T02:38:13.790Z,3.72
2022-08-12T02:42:19.984Z,5.05
2022-08-12T02:46:29.702Z,5.28
2022-08-12T02:50:37.650Z,5.45
2022-08-12T02:54:44.851Z,4.47
2022-08-12T02:58:47.863Z,5.43
2022-08-12T03:02:52.784Z,3.45
2022-08-12T03:07:10.386Z,4.30
2022-08-12T03:11:17.864Z,5.20
2022-08-12T03:15:22.998Z,4.80
2022-08-12T03:19:26.143Z,4.85
2022-08-12T03:23:31.676Z,6.00
2022-08-12T03:27:34.509Z,3.30
2022-08-12T03:31:37.362Z,4.20
2022-08-12T03:35:42.502Z,4.35
2022-08-12T03:39:47.845Z,4.28
2022-08-12T03:44:16.982Z,4.35
2022-08-12T03:48:37.842Z,4.93
2022-08-12T03:52:58.153Z,6.53
2022-08-12T03:57:19.676Z,7.50
2022-08-12T04:01:23.399Z,4.53
2022-08-12T04:05:54.220Z,6.50
2022-08-12T04:09:49.217Z,7.07
2022-08-12T04:13:52.378Z,6.43
2022-08-12T04:18:07.717Z,10.43
2022-08-12T04:22:12.487Z,4.20
2022-08-12T04:26:15.315Z,5.78
2022-08-12T04:30:32.510Z,3.78
2022-08-12T04:34:39.239Z,5.00
2022-08-12T04:38:43.108Z,7.32
2022-08-12T04:42:46.644Z,4.32
2022-08-12T04:46:50.795Z,11.48
2022-08-12T04:50:53.747Z,9.68
2022-08-12T04:54:56.876Z,8.70
2022-08-12T04:59:00.256Z,5.47
2022-08-12T05:03:05.495Z,5.07
2022-08-12T05:07:09.759Z,5.10
2022-08-12T05:11:12.886Z,5.22
2022-08-12T05:15:26.549Z,4.35
2022-08-12T05:19:34.707Z,5.28
2022-08-12T05:23:42.709Z,14.18
2022-08-12T05:27:58.205Z,4.78
2022-08-12T05:32:02.947Z,5.40
2022-08-12T05:36:08.697Z,6.07
2022-08-12T05:40:13.022Z,7.25
2022-08-12T05:44:16.770Z,7.43
2022-08-12T05:48:20.302Z,5.35
2022-08-12T05:52:24.487Z,5.97
2022-08-12T05:56:31.416Z,7.25
2022-08-12T06:00:35.165Z,7.43
2022-08-12T06:04:38.562Z,5.97
2022-08-12T06:08:48.561Z,7.32
2022-08-12T06:12:51.575Z,5.97
2022-08-12T06:16:54.395Z,1.42
2022-08-12T06:21:01.712Z,2.83
2022-08-12T06:29:09.454Z,1.65
2022-08-12T06:33:22.888Z,0.50
2022-08-12T06:37:27.959Z,0.98
2022-08-12T06:42:27.712Z,3.17
2022-08-12T06:46:13.603Z,2.25
2022-08-12T06:50:16.884Z,2.65
2022-08-12T06:54:31.272Z,9.07
2022-08-12T06:58:37.326Z,4.82
2022-08-12T07:02:40.308Z,2.38
2022-08-12T07:06:44.742Z,5.13
2022-08-12T07:10:59.237Z,3.80
2022-08-12T07:15:03.539Z,4.55
2022-08-12T07:19:06.372Z,3.50
2022-08-12T07:23:09.359Z,5.45
2022-08-12T07:27:12.129Z,5.32
2022-08-12T07:31:17.334Z,2.65
2022-08-12T07:35:20.878Z,3.67
2022-08-12T07:39:23.735Z,3.13
2022-08-12T07:43:28.014Z,4.00
2022-08-12T07:47:33.330Z,0.57
2022-08-12T07:51:36.370Z,0.43
2022-08-12T07:55:39.431Z,0.10
2022-08-12T07:59:42.270Z,0.38
2022-08-12T08:04:16.446Z,1.17
2022-08-12T08:08:23.141Z,0.30
2022-08-12T08:12:44.363Z,0.63
2022-08-12T08:16:48.505Z,1.02
2022-08-12T08:20:52.659Z,0.68
2022-08-12T08:24:57.569Z,2.33
2022-08-12T08:29:00.560Z,1.05
2022-08-12T08:33:11.253Z,2.80
2022-08-12T08:37:32.884Z,3.80
2022-08-12T08:42:17.784Z,4.38
2022-08-12T08:46:16.645Z,1.63
2022-08-12T08:50:19.469Z,3.75
2022-08-12T08:54:24.634Z,1.70
2022-08-12T08:58:27.494Z,4.72
2022-08-12T09:02:30.277Z,2.63
2022-08-12T09:12:07.225Z,1.08
2022-08-12T09:15:42.370Z,2.13
2022-08-12T09:19:58.933Z,4.05
2022-08-12T09:24:06.162Z,1.80
2022-08-12T09:28:12.917Z,1.27
2022-08-12T09:32:56.256Z,2.95
2022-08-12T09:37:00.141Z,1.50
2022-08-12T09:42:32.942Z,4.50
2022-08-12T09:46:11.850Z,2.67
2022-08-12T09:49:49.145Z,2.85
2022-08-12T09:54:33.715Z,1.30
2022-08-12T09:58:58.008Z,2.03
2022-08-12T10:03:05.821Z,1.35
2022-08-12T10:07:13.715Z,3.78
2022-08-12T10:12:11.694Z,2.58
2022-08-12T10:16:21.798Z,0.77
2022-08-12T10:20:26.871Z,1.50
2022-08-12T10:24:29.635Z,3.40
2022-08-12T10:29:01.940Z,2.92
2022-08-12T10:33:18.204Z,2.25
2022-08-12T10:38:34.382Z,1.58
2022-08-12T10:42:04.624Z,1.20
2022-08-12T10:46:13.205Z,3.50
2022-08-12T10:50:35.955Z,3.15
2022-08-12T10:54:41.579Z,2.00
2022-08-12T10:58:46.061Z,2.88
2022-08-12T11:04:20.315Z,2.15
2022-08-12T11:08:33.799Z,3.72
2022-08-12T11:12:37.054Z,1.75
2022-08-12T11:16:22.245Z,3.40
2022-08-12T11:20:30.539Z,1.77
2022-08-12T11:24:34.040Z,2.55
2022-08-12T11:28:39.099Z,2.45
2022-08-12T11:32:41.865Z,0.08
2022-08-12T11:36:55.621Z,0.05
2022-08-12T11:41:02.353Z,0.20
2022-08-12T11:45:10.300Z,0.70
2022-08-12T11:49:13.459Z,1.27
2022-08-12T11:53:58.317Z,0.88
2022-08-12T11:58:34.154Z,1.10
2022-08-12T12:06:24.654Z,2.10
2022-08-12T12:10:27.431Z,0.40
2022-08-12T12:14:38.304Z,0.22
2022-08-12T12:18:43.659Z,0.00
2022-08-12T12:22:46.421Z,0.10
2022-08-12T12:26:59.607Z,0.20
2022-08-12T12:31:04.234Z,0.30
2022-08-12T12:35:14.080Z,0.52
2022-08-12T12:39:54.877Z,0.70
2022-08-12T12:44:04.078Z,0.40
2022-08-12T12:48:09.960Z,0.20
2022-08-12T12:52:21.009Z,0.40
2022-08-12T12:56:33.983Z,0.40
2022-08-12T13:00:40.411Z,0.00
2022-08-12T13:04:53.641Z,0.10
2022-08-12T13:08:57.957Z,0.20
2022-08-12T13:14:10.592Z,0.20
2022-08-12T13:18:02.406Z,0.20
2022-08-12T13:22:08.415Z,0.10
2022-08-12T13:26:14.363Z,0.20
2022-08-12T13:30:20.301Z,0.10
2022-08-12T13:34:32.315Z,0.10
2022-08-12T13:38:38.666Z,0.10
2022-08-12T13:42:46.273Z,0.10
2022-08-12T13:46:58.076Z,0.10
2022-08-12T13:51:04.392Z,0.10
2022-08-12T13:55:07.886Z,0.00
2022-08-12T13:59:13.413Z,0.00
2022-08-12T14:03:17.750Z,0.10
2022-08-12T14:07:20.542Z,0.10
2022-08-12T14:11:25.404Z,0.00
2022-08-12T14:15:37.240Z,0.00
2022-08-12T14:20:01.788Z,0.22
2022-08-12T14:24:09.570Z,0.00
2022-08-12T14:28:16.966Z,0.00
2022-08-12T14:32:21.894Z,0.00
2022-08-12T14:36:27.697Z,0.20
2022-08-12T14:40:31.187Z,0.10
2022-08-12T14:44:57.668Z,0.22
2022-08-12T14:48:58.881Z,0.10
2022-08-12T14:57:56.866Z,0.20
2022-08-12T15:02:00.429Z,2.28
2022-08-12T15:06:39.462Z,0.30
2022-08-12T15:10:32.434Z,0.32
2022-08-12T15:14:38.129Z,0.28
2022-08-12T15:18:55.159Z,0.32
2022-08-12T15:23:00.864Z,0.30
2022-08-12T15:27:04.013Z,0.25
2022-08-12T15:31:28.036Z,0.30
2022-08-12T15:35:53.240Z,0.55
2022-08-12T15:40:00.922Z,0.30
2022-08-12T15:44:37.323Z,3.20
2022-08-12T15:48:27.206Z,0.38
2022-08-12T15:52:33.354Z,1.73
2022-08-12T15:56:38.195Z,0.65
2022-08-12T16:00:42.119Z,0.30
2022-08-12T16:04:44.953Z,0.30
2022-08-12T16:08:48.666Z,0.47
2022-08-12T16:12:56.341Z,0.68
2022-08-12T16:16:59.110Z,0.75
2022-08-12T16:21:02.769Z,0.70
2022-08-12T16:25:07.549Z,0.77
2022-08-12T16:29:15.371Z,0.75
2022-08-12T16:33:19.545Z,1.25
2022-08-12T16:37:22.975Z,0.52
2022-08-12T16:41:39.464Z,1.27
2022-08-12T16:46:07.735Z,0.65
2022-08-12T16:50:09.886Z,1.25
2022-08-12T16:54:18.863Z,4.95
2022-08-12T16:58:30.317Z,2.42
2022-08-12T17:02:37.871Z,2.53
2022-08-12T17:06:44.347Z,0.95
2022-08-12T17:10:52.638Z,2.47
2022-08-12T17:14:56.281Z,0.90
2022-08-12T17:19:03.359Z,0.90
2022-08-12T17:23:14.358Z,3.20
2022-08-12T17:27:17.555Z,3.33
2022-08-12T17:32:00.233Z,1.10
2022-08-12T17:35:49.959Z,1.33
2022-08-12T17:40:12.770Z,1.45
2022-08-12T17:44:16.583Z,2.20
2022-08-12T17:48:21.820Z,1.45
2022-08-12T17:52:33.334Z,1.42
2022-08-12T17:56:37.887Z,1.08
2022-08-12T18:00:45.094Z,0.70
2022-08-12T18:05:03.121Z,1.42
2022-08-12T18:09:09.834Z,1.80
2022-08-12T18:13:13.490Z,3.60
2022-08-12T18:17:39.495Z,0.80
2022-08-12T18:22:01.160Z,1.73
2022-08-12T18:26:26.419Z,1.55
2022-08-12T18:30:31.298Z,1.02
2022-08-12T18:34:34.970Z,1.58
2022-08-12T18:38:38.130Z,1.45
2022-08-12T18:42:46.848Z,1.83
2022-08-12T18:47:02.063Z,5.50
2022-08-12T18:51:09.177Z,2.05
2022-08-12T18:55:13.526Z,1.30
2022-08-12T19:00:01.334Z,1.70
2022-08-12T19:03:57.331Z,1.67
2022-08-12T19:08:03.054Z,1.23
2022-08-12T19:12:25.126Z,2.78
2022-08-12T19:16:38.764Z,1.83
2022-08-12T19:20:42.802Z,1.38
2022-08-12T19:25:08.814Z,3.22
2022-08-12T19:29:11.757Z,2.15
2022-08-12T19:33:19.254Z,3.08
2022-08-12T19:38:04.465Z,1.95
2022-08-12T19:42:01.361Z,1.35
2022-08-12T19:46:06.146Z,1.48
2022-08-12T19:50:11.846Z,4.45
2022-08-12T19:54:15.187Z,1.95
2022-08-12T19:58:18.439Z,1.52
2022-08-12T20:02:32.769Z,3.47
2022-08-12T20:06:41.743Z,1.38
2022-08-12T20:10:47.146Z,1.67
2022-08-12T20:14:53.795Z,2.47
2022-08-12T20:18:58.033Z,8.15
2022-08-12T20:23:08.690Z,2.42
2022-08-12T20:27:29.390Z,2.72
2022-08-12T20:31:37.414Z,3.85
2022-08-12T20:36:14.019Z,8.13
2022-08-12T20:40:05.775Z,4.78
2022-08-12T20:44:16.871Z,2.63
2022-08-12T20:48:21.563Z,11.38
2022-08-12T20:52:30.057Z,2.72
2022-08-12T20:56:37.056Z,5.47
2022-08-12T21:00:39.938Z,6.70
2022-08-12T21:05:00.267Z,4.55
2022-08-12T21:13:20.146Z,5.10
2022-08-12T21:17:23.846Z,6.78
2022-08-12T21:21:50.100Z,4.95
2022-08-12T21:25:56.685Z,1.73
2022-08-12T21:30:06.655Z,3.22
2022-08-12T21:34:09.659Z,2.40
2022-08-12T21:38:12.447Z,2.40
2022-08-12T21:42:15.698Z,3.85
2022-08-12T21:46:33.778Z,3.85
2022-08-12T21:50:41.313Z,2.97
2022-08-12T21:54:46.384Z,4.53
2022-08-12T21:58:49.150Z,8.60
2022-08-12T22:03:10.622Z,4.95
2022-08-12T22:07:13.394Z,10.18
2022-08-12T22:11:23.646Z,3.80
2022-08-12T22:15:45.463Z,3.95
2022-08-12T22:19:55.503Z,4.05
2022-08-12T22:24:05.478Z,2.60
2022-08-12T22:32:30.089Z,2.97
2022-08-12T22:36:34.482Z,2.67
2022-08-12T22:40:37.303Z,4.20
2022-08-12T22:44:57.671Z,4.40
2022-08-12T22:53:16.215Z,7.32
2022-08-12T22:57:20.382Z,2.97
2022-08-12T23:01:52.238Z,4.97
2022-08-12T23:06:05.312Z,5.78
2022-08-12T23:10:15.313Z,3.05
2022-08-12T23:14:24.857Z,4.55
2022-08-12T23:18:33.469Z,3.40
2022-08-12T23:22:37.399Z,3.20
2022-08-12T23:26:58.829Z,3.15
2022-08-12T23:31:04.804Z,3.40
2022-08-12T23:35:09.475Z,2.88
2022-08-12T23:40:13.900Z,3.75
2022-08-12T23:43:50.167Z,4.57
2022-08-12T23:47:54.110Z,4.85
2022-08-12T23:52:11.543Z,2.72
2022-08-12T23:56:16.256Z,3.75
